createdAt,value
2022-09-17T00:01:49.896Z,12.02
2022-09-17T00:04:17.839Z,12.08
2022-09-17T00:06:46.019Z,12.11
2022-09-17T00:09:13.849Z,12.12
2022-09-17T00:11:45.516Z,11.94
2022-09-17T00:14:22.621Z,12.18
2022-09-17T00:16:50.500Z,12.21
2022-09-17T00:19:22.830Z,12.22
2022-09-17T00:21:54.259Z,12.23
2022-09-17T00:24:22.998Z,12.23
2022-09-17T00:26:55.057Z,12.23
2022-09-17T00:29:29.143Z,12.20
2022-09-17T00:31:57.118Z,12.19
2022-09-17T00:34:25.003Z,12.23
2022-09-17T00:36:52.789Z,12.23
2022-09-17T00:39:20.718Z,12.17
2022-09-17T00:41:51.399Z,12.13
2022-09-17T00:44:48.262Z,12.09
2022-09-17T00:47:23.324Z,12.01
2022-09-17T00:49:57.856Z,12.03
2022-09-17T00:52:31.067Z,12.06
2022-09-17T00:55:10.118Z,12.10
2022-09-17T00:57:38.189Z,12.13
2022-09-17T01:00:09.311Z,12.16
2022-09-17T01:02:37.602Z,12.13
2022-09-17T01:05:09.587Z,12.11
2022-09-17T01:07:52.325Z,11.90
2022-09-17T01:10:35.185Z,12.04
2022-09-17T01:13:11.967Z,12.02
2022-09-17T01:15:45.630Z,12.02
2022-09-17T01:18:42.120Z,12.00
2022-09-17T01:21:35.372Z,11.99
2022-09-17T01:24:44.261Z,11.99
2022-09-17T01:27:45.553Z,11.91
2022-09-17T01:30:42.197Z,11.85
2022-09-17T01:33:16.524Z,11.79
2022-09-17T01:35:48.589Z,11.72
2022-09-17T01:38:28.803Z,11.65
2022-09-17T01:41:33.158Z,11.66
2022-09-17T01:44:11.446Z,11.63
2022-09-17T01:46:44.971Z,11.61
2022-09-17T01:49:16.566Z,11.56
2022-09-17T01:51:50.716Z,11.55
2022-09-17T01:54:24.044Z,11.53
2022-09-17T01:56:57.228Z,11.51
2022-09-17T01:59:31.453Z,11.52
2022-09-17T02:02:08.290Z,11.53
2022-09-17T02:04:39.535Z,11.53
2022-09-17T02:07:10.598Z,11.57
2022-09-17T02:09:42.794Z,11.61
2022-09-17T02:12:14.941Z,11.61
2022-09-17T02:14:49.735Z,11.64
2022-09-17T02:17:25.567Z,11.60
2022-09-17T02:19:57.685Z,11.67
2022-09-17T02:22:29.348Z,11.67
2022-09-17T02:25:10.824Z,11.72
2022-09-17T02:27:46.954Z,11.70
2022-09-17T02:30:17.911Z,11.71
2022-09-17T02:32:47.671Z,11.73
2022-09-17T02:35:18.132Z,11.72
2022-09-17T02:37:46.436Z,11.74
2022-09-17T02:40:19.026Z,11.72
2022-09-17T02:43:12.301Z,11.67
2022-09-17T02:45:53.293Z,11.57
2022-09-17T02:48:49.291Z,11.52
2022-09-17T02:51:34.060Z,11.49
2022-09-17T02:54:19.372Z,11.51
2022-09-17T02:56:55.902Z,11.51
2022-09-17T02:59:30.656Z,11.44
2022-09-17T03:02:04.301Z,11.36
2022-09-17T03:04:38.181Z,11.30
2022-09-17T03:07:09.010Z,11.31
2022-09-17T03:09:37.262Z,11.32
2022-09-17T03:12:05.610Z,11.26
2022-09-17T03:14:35.866Z,11.22
2022-09-17T03:17:20.691Z,11.11
2022-09-17T03:19:53.655Z,11.10
2022-09-17T03:22:21.534Z,11.03
2022-09-17T03:24:50.252Z,10.99
2022-09-17T03:27:18.126Z,10.95
2022-09-17T03:29:53.770Z,10.92
2022-09-17T03:32:21.573Z,10.90
2022-09-17T03:34:51.318Z,10.89
2022-09-17T03:37:22.945Z,10.85
2022-09-17T03:40:18.896Z,10.83
2022-09-17T03:42:57.122Z,10.82
2022-09-17T03:45:24.907Z,10.82
2022-09-17T03:47:52.564Z,10.85
2022-09-17T03:50:20.339Z,10.96
2022-09-17T03:52:52.535Z,11.00
2022-09-17T03:55:38.963Z,10.89
2022-09-17T03:58:07.295Z,10.92
2022-09-17T04:00:37.220Z,10.76
2022-09-17T04:03:05.355Z,10.77
2022-09-17T04:05:36.027Z,10.96
2022-09-17T04:08:13.053Z,10.97
2022-09-17T04:10:40.957Z,10.96
2022-09-17T04:13:08.990Z,10.97
2022-09-17T04:15:36.941Z,10.94
2022-09-17T04:18:05.026Z,10.73
2022-09-17T04:20:35.732Z,10.89
2022-09-17T04:23:07.167Z,10.95
2022-09-17T04:25:35.347Z,10.99
2022-09-17T04:28:10.502Z,11.07
2022-09-17T04:30:38.541Z,11.11
2022-09-17T04:33:06.680Z,11.12
2022-09-17T04:35:34.541Z,11.15
2022-09-17T04:38:18.587Z,11.19
2022-09-17T04:40:48.453Z,11.16
2022-09-17T04:43:16.208Z,11.16
2022-09-17T04:45:47.125Z,11.12
2022-09-17T04:48:14.953Z,11.12
2022-09-17T04:50:42.745Z,11.10
2022-09-17T04:53:19.926Z,11.11
2022-09-17T04:55:48.344Z,11.08
2022-09-17T04:58:16.193Z,11.06
2022-09-17T05:00:44.351Z,11.07
2022-09-17T05:03:12.264Z,11.07
2022-09-17T05:05:42.608Z,11.10
2022-09-17T05:08:11.873Z,11.10
2022-09-17T05:10:39.662Z,11.11
2022-09-17T05:13:15.018Z,11.11
2022-09-17T05:15:42.789Z,11.08
2022-09-17T05:18:35.585Z,11.08
2022-09-17T05:21:17.857Z,11.10
2022-09-17T05:23:47.921Z,11.05
2022-09-17T05:26:17.940Z,11.10
2022-09-17T05:28:45.691Z,11.08
2022-09-17T05:31:15.971Z,11.06
2022-09-17T05:33:43.811Z,11.01
2022-09-17T05:36:15.391Z,11.04
2022-09-17T05:38:43.254Z,11.02
2022-09-17T05:41:20.294Z,11.05
2022-09-17T05:43:48.031Z,11.12
2022-09-17T05:46:16.370Z,11.17
2022-09-17T05:48:44.582Z,11.19
2022-09-17T05:51:12.706Z,11.17
2022-09-17T05:53:40.617Z,11.22
2022-09-17T05:56:09.374Z,11.24
2022-09-17T05:58:38.486Z,11.28
2022-09-17T06:01:06.544Z,11.26
2022-09-17T06:03:34.395Z,11.24
2022-09-17T06:06:02.400Z,11.26
2022-09-17T06:08:30.840Z,11.32
2022-09-17T06:11:02.487Z,11.35
2022-09-17T06:13:30.917Z,11.40
2022-09-17T06:16:00.287Z,11.43
2022-09-17T06:18:29.259Z,11.37
2022-09-17T06:20:58.318Z,11.32
2022-09-17T06:23:27.047Z,11.26
2022-09-17T06:25:56.826Z,11.20
2022-09-17T06:28:25.247Z,10.99
2022-09-17T06:35:13.533Z,10.91
2022-09-17T06:37:41.430Z,10.90
2022-09-17T06:40:10.587Z,10.94
2022-09-17T06:42:38.577Z,11.01
2022-09-17T06:45:11.065Z,10.98
2022-09-17T06:47:41.147Z,11.08
2022-09-17T06:50:09.426Z,11.17
2022-09-17T06:52:38.702Z,11.32
2022-09-17T06:55:07.129Z,11.46
2022-09-17T06:57:41.112Z,11.53
2022-09-17T07:00:10.442Z,11.77
2022-09-17T07:02:38.199Z,12.09
2022-09-17T07:05:07.053Z,12.20
2022-09-17T07:07:39.243Z,12.14
2022-09-17T07:10:08.117Z,12.16
2022-09-17T07:12:42.914Z,12.09
2022-09-17T07:15:13.804Z,11.98
2022-09-17T07:17:45.698Z,11.75
2022-09-17T07:20:19.898Z,11.64
2022-09-17T07:22:59.015Z,11.64
2022-09-17T07:25:27.446Z,11.51
2022-09-17T07:27:55.341Z,11.66
2022-09-17T07:30:23.543Z,11.73
2022-09-17T07:32:51.347Z,11.78
2022-09-17T07:35:19.240Z,11.82
2022-09-17T07:37:47.492Z,11.88
2022-09-17T07:40:16.794Z,11.92
2022-09-17T07:42:44.653Z,11.98
2022-09-17T07:45:12.381Z,11.98
2022-09-17T07:47:41.446Z,12.02
2022-09-17T07:50:10.535Z,12.00
2022-09-17T07:52:38.289Z,12.11
2022-09-17T07:55:07.430Z,12.18
2022-09-17T07:57:36.766Z,12.24
2022-09-17T08:00:05.689Z,12.35
2022-09-17T08:02:39.397Z,12.43
2022-09-17T08:05:07.739Z,12.49
2022-09-17T08:07:35.520Z,12.52
2022-09-17T08:10:03.512Z,12.54
2022-09-17T08:12:31.361Z,12.49
2022-09-17T08:15:00.642Z,12.49
2022-09-17T08:17:28.531Z,12.58
2022-09-17T08:19:56.344Z,12.66
2022-09-17T08:22:24.272Z,12.78
2022-09-17T08:24:52.118Z,12.84
2022-09-17T08:27:19.898Z,12.92
2022-09-17T08:29:47.690Z,13.01
2022-09-17T08:32:16.931Z,13.06
2022-09-17T08:34:44.903Z,13.18
2022-09-17T08:37:12.674Z,13.29
2022-09-17T08:39:40.471Z,13.39
2022-09-17T08:42:14.067Z,13.50
2022-09-17T08:44:46.052Z,13.60
2022-09-17T08:47:22.314Z,13.64
2022-09-17T08:49:53.888Z,13.67
2022-09-17T08:52:43.068Z,13.75
2022-09-17T08:55:24.667Z,13.90
2022-09-17T08:58:04.167Z,14.08
2022-09-17T09:00:41.942Z,14.24
2022-09-17T09:03:23.052Z,14.25
2022-09-17T09:05:53.468Z,14.25
2022-09-17T09:08:30.414Z,14.09
2022-09-17T09:11:00.943Z,14.05
2022-09-17T09:13:32.327Z,14.09
2022-09-17T09:16:01.965Z,14.14
2022-09-17T09:18:36.354Z,14.05
2022-09-17T09:21:19.308Z,14.29
2022-09-17T09:23:54.204Z,14.34
2022-09-17T09:26:23.651Z,14.07
2022-09-17T09:29:15.852Z,14.16
2022-09-17T09:32:15.565Z,14.42
2022-09-17T09:34:46.707Z,14.66
2022-09-17T09:37:21.148Z,14.91
2022-09-17T09:39:52.018Z,15.21
2022-09-17T09:42:29.174Z,15.44
2022-09-17T09:45:04.707Z,15.73
2022-09-17T09:47:46.743Z,15.83
2022-09-17T09:51:01.683Z,16.07
2022-09-17T09:53:33.128Z,16.04
2022-09-17T09:56:25.118Z,15.81
2022-09-17T09:58:53.113Z,15.76
2022-09-17T10:01:23.039Z,15.78
2022-09-17T10:03:54.150Z,15.74
2022-09-17T10:06:25.225Z,15.64
2022-09-17T10:09:13.897Z,15.60
2022-09-17T10:11:42.510Z,15.70
2022-09-17T10:14:25.570Z,15.76
2022-09-17T10:17:19.485Z,16.01
2022-09-17T10:19:48.416Z,15.98
2022-09-17T10:22:27.019Z,15.91
2022-09-17T10:24:56.907Z,15.76
2022-09-17T10:27:26.551Z,15.66
2022-09-17T10:30:17.121Z,15.80
2022-09-17T10:32:45.462Z,16.04
2022-09-17T10:35:28.763Z,16.04
2022-09-17T10:37:58.029Z,16.28
2022-09-17T10:40:31.743Z,16.54
2022-09-17T10:43:24.573Z,16.78
2022-09-17T10:45:59.839Z,16.83
2022-09-17T10:48:31.983Z,16.72
2022-09-17T10:51:02.969Z,16.53
2022-09-17T10:53:32.221Z,16.38
2022-09-17T10:56:11.325Z,16.29
2022-09-17T10:58:55.863Z,16.39
2022-09-17T11:01:41.666Z,16.63
2022-09-17T11:04:25.961Z,16.63
2022-09-17T11:07:15.318Z,16.47
2022-09-17T11:09:54.496Z,16.25
2022-09-17T11:12:33.492Z,16.03
2022-09-17T11:15:08.653Z,15.75
2022-09-17T11:18:02.552Z,15.92
2022-09-17T11:20:48.784Z,16.26
2022-09-17T11:23:30.553Z,16.32
2022-09-17T11:26:02.392Z,16.20
2022-09-17T11:28:45.408Z,15.98
2022-09-17T11:31:26.909Z,15.74
2022-09-17T11:34:24.792Z,15.65
2022-09-17T11:36:59.722Z,15.64
2022-09-17T11:39:37.845Z,15.71
2022-09-17T11:42:11.772Z,15.76
2022-09-17T11:44:45.714Z,15.70
2022-09-17T11:47:17.845Z,15.61
2022-09-17T11:49:50.438Z,15.58
2022-09-17T11:52:23.918Z,15.61
2022-09-17T11:54:57.260Z,15.74
2022-09-17T11:57:32.948Z,15.91
2022-09-17T12:00:05.993Z,16.04
2022-09-17T12:02:49.216Z,16.25
2022-09-17T12:05:22.105Z,16.34
2022-09-17T12:07:57.701Z,16.29
2022-09-17T12:10:38.407Z,16.12
2022-09-17T12:13:28.386Z,15.64
2022-09-17T12:16:08.953Z,14.88
2022-09-17T12:18:48.776Z,14.70
2022-09-17T12:21:22.304Z,14.59
2022-09-17T12:23:54.138Z,14.11
2022-09-17T12:26:57.254Z,13.56
2022-09-17T12:29:49.035Z,13.24
2022-09-17T12:32:51.737Z,12.95
2022-09-17T12:36:02.368Z,12.95
2022-09-17T12:38:48.943Z,12.91
2022-09-17T12:41:21.471Z,13.04
2022-09-17T12:44:17.143Z,13.04
2022-09-17T12:47:04.028Z,12.94
2022-09-17T12:49:58.394Z,12.65
2022-09-17T12:52:38.073Z,12.44
2022-09-17T12:55:41.490Z,12.28
2022-09-17T12:58:24.554Z,12.32
2022-09-17T13:01:00.465Z,12.15
2022-09-17T13:03:34.614Z,12.12
2022-09-17T13:06:42.110Z,12.06
2022-09-17T13:09:54.792Z,12.13
2022-09-17T13:12:34.510Z,12.30
2022-09-17T13:15:21.998Z,12.51
2022-09-17T13:18:13.214Z,12.72
2022-09-17T13:21:05.542Z,12.82
2022-09-17T13:23:41.386Z,12.78
2022-09-17T13:26:10.509Z,12.77
2022-09-17T13:28:50.605Z,12.73
2022-09-17T13:31:23.417Z,12.72
2022-09-17T13:33:59.554Z,12.61
2022-09-17T13:36:44.486Z,12.56
2022-09-17T13:39:28.565Z,12.48
2022-09-17T13:42:03.911Z,12.37
2022-09-17T13:44:31.906Z,12.30
2022-09-17T13:47:17.102Z,12.23
2022-09-17T13:49:53.360Z,12.11
2022-09-17T13:52:35.797Z,12.08
2022-09-17T13:55:04.507Z,12.13
2022-09-17T13:57:35.416Z,12.17
2022-09-17T14:00:03.558Z,12.19
2022-09-17T14:02:39.675Z,12.23
2022-09-17T14:05:40.647Z,12.17
2022-09-17T14:08:31.611Z,12.16
2022-09-17T14:11:26.264Z,12.11
2022-09-17T14:13:55.169Z,12.08
2022-09-17T14:16:47.655Z,12.15
2022-09-17T14:19:28.557Z,12.26
2022-09-17T14:22:02.436Z,12.32
2022-09-17T14:24:37.635Z,12.40
2022-09-17T14:27:14.448Z,12.36
2022-09-17T14:30:00.400Z,12.31
2022-09-17T14:32:32.343Z,12.29
2022-09-17T14:35:05.103Z,12.32
2022-09-17T14:37:34.783Z,12.31
2022-09-17T14:40:12.610Z,12.53
2022-09-17T14:42:48.455Z,12.66
2022-09-17T14:45:20.608Z,12.87
2022-09-17T14:47:48.422Z,12.89
2022-09-17T14:50:22.615Z,12.92
2022-09-17T14:52:50.790Z,12.76
2022-09-17T14:55:22.064Z,12.70
2022-09-17T14:57:54.533Z,12.74
2022-09-17T15:00:25.943Z,12.74
2022-09-17T15:02:59.477Z,12.58
2022-09-17T15:05:31.660Z,12.52
2022-09-17T15:08:09.629Z,12.48
2022-09-17T15:10:48.024Z,12.41
2022-09-17T15:13:19.363Z,12.39
2022-09-17T15:16:17.660Z,12.28
2022-09-17T15:18:50.631Z,12.25
2022-09-17T15:21:30.231Z,12.24
2022-09-17T15:24:19.258Z,12.24
2022-09-17T15:26:51.768Z,12.17
2022-09-17T15:29:24.285Z,12.16
2022-09-17T15:31:52.308Z,12.11
2022-09-17T15:34:20.176Z,12.00
2022-09-17T15:37:07.322Z,11.97
2022-09-17T15:39:45.847Z,11.98
2022-09-17T15:42:22.806Z,12.06
2022-09-17T15:44:51.332Z,12.10
2022-09-17T15:47:51.702Z,12.28
2022-09-17T15:50:21.663Z,12.33
2022-09-17T15:52:50.315Z,12.39
2022-09-17T15:55:35.727Z,12.40
2022-09-17T15:58:20.328Z,12.34
2022-09-17T16:00:48.663Z,12.29
2022-09-17T16:04:05.993Z,12.25
2022-09-17T16:06:55.997Z,12.19
2022-09-17T16:09:53.252Z,12.17
2022-09-17T16:12:26.846Z,12.14
2022-09-17T16:14:58.284Z,12.08
2022-09-17T16:17:32.998Z,12.05
2022-09-17T16:20:06.136Z,12.01
2022-09-17T16:22:34.862Z,11.98
2022-09-17T16:25:06.707Z,11.93
2022-09-17T16:27:40.657Z,11.85
2022-09-17T16:30:16.719Z,11.81
2022-09-17T16:32:44.927Z,11.73
2022-09-17T16:35:17.416Z,11.66
2022-09-17T16:37:45.988Z,11.61
2022-09-17T16:40:14.986Z,11.61
2022-09-17T16:42:42.823Z,11.59
2022-09-17T16:45:12.617Z,11.57
2022-09-17T16:47:43.754Z,11.61
2022-09-17T16:50:14.110Z,11.64
2022-09-17T16:52:48.350Z,11.65
2022-09-17T16:55:18.457Z,11.64
2022-09-17T16:57:47.010Z,11.61
2022-09-17T17:00:19.695Z,11.58
2022-09-17T17:02:54.058Z,11.45
2022-09-17T17:05:22.086Z,11.51
2022-09-17T17:07:56.621Z,11.48
2022-09-17T17:10:27.456Z,11.46
2022-09-17T17:12:59.001Z,11.50
2022-09-17T17:15:28.322Z,11.51
2022-09-17T17:18:02.318Z,11.52
2022-09-17T17:20:31.985Z,11.52
2022-09-17T17:23:03.703Z,11.57
2022-09-17T17:25:32.380Z,11.60
2022-09-17T17:28:09.418Z,11.64
2022-09-17T17:30:48.484Z,11.67
2022-09-17T17:33:16.346Z,11.69
2022-09-17T17:35:45.470Z,11.73
2022-09-17T17:38:15.375Z,11.75
2022-09-17T17:40:45.503Z,11.76
2022-09-17T17:43:13.880Z,11.70
2022-09-17T17:45:58.072Z,11.68
2022-09-17T17:48:25.998Z,11.63
2022-09-17T17:50:56.825Z,11.60
2022-09-17T17:53:24.858Z,11.57
2022-09-17T17:56:00.197Z,11.53
2022-09-17T17:58:28.268Z,11.53
2022-09-17T18:00:56.715Z,11.52
2022-09-17T18:03:26.512Z,11.50
2022-09-17T18:05:56.459Z,11.48
2022-09-17T18:08:24.649Z,11.47
2022-09-17T18:10:53.964Z,11.42
2022-09-17T18:13:22.352Z,11.37
2022-09-17T18:15:55.463Z,11.35
2022-09-17T18:18:26.145Z,11.32
2022-09-17T18:20:55.745Z,11.28
2022-09-17T18:23:23.745Z,11.29
2022-09-17T18:25:55.855Z,11.29
2022-09-17T18:28:31.911Z,11.24
2022-09-17T18:31:05.616Z,11.31
2022-09-17T18:33:35.992Z,11.28
2022-09-17T18:36:06.019Z,11.25
2022-09-17T18:38:35.398Z,11.16
2022-09-17T18:41:05.718Z,11.15
2022-09-17T18:43:34.496Z,11.18
2022-09-17T18:46:08.149Z,11.20
2022-09-17T18:48:37.770Z,11.20
2022-09-17T18:51:07.293Z,11.20
2022-09-17T18:53:37.508Z,11.21
2022-09-17T18:56:08.327Z,11.24
2022-09-17T18:58:36.156Z,11.29
2022-09-17T19:01:08.834Z,11.18
2022-09-17T19:03:38.391Z,11.32
2022-09-17T19:06:09.053Z,11.27
2022-09-17T19:08:37.267Z,11.34
2022-09-17T19:11:06.127Z,11.35
2022-09-17T19:13:35.771Z,11.37
2022-09-17T19:16:04.635Z,11.39
2022-09-17T19:18:33.336Z,11.40
2022-09-17T19:21:07.417Z,11.41
2022-09-17T19:23:36.034Z,11.42
2022-09-17T19:26:22.929Z,11.45
2022-09-17T19:28:53.050Z,11.39
2022-09-17T19:31:22.389Z,11.49
2022-09-17T19:33:51.431Z,11.47
2022-09-17T19:36:21.883Z,11.48
2022-09-17T19:38:49.994Z,11.47
2022-09-17T19:41:19.664Z,11.45
2022-09-17T19:43:48.152Z,11.24
2022-09-17T19:46:27.497Z,11.45
2022-09-17T19:48:57.523Z,11.44
2022-09-17T19:51:29.531Z,11.45
2022-09-17T19:53:57.658Z,11.44
2022-09-17T19:56:31.787Z,11.44
2022-09-17T19:58:59.561Z,11.47
2022-09-17T20:01:31.464Z,11.50
2022-09-17T20:04:03.407Z,11.51
2022-09-17T20:06:34.363Z,11.57
2022-09-17T20:09:08.699Z,11.57
2022-09-17T20:11:42.425Z,11.52
2022-09-17T20:14:12.441Z,11.49
2022-09-17T20:16:43.394Z,11.44
2022-09-17T20:19:15.392Z,11.44
2022-09-17T20:21:44.929Z,11.44
2022-09-17T20:24:13.419Z,11.41
2022-09-17T20:26:41.809Z,11.37
2022-09-17T20:29:10.816Z,11.29
2022-09-17T20:31:38.937Z,11.13
2022-09-17T20:34:07.127Z,11.19
2022-09-17T20:36:36.176Z,11.16
2022-09-17T20:39:22.495Z,11.13
2022-09-17T20:41:50.797Z,11.08
2022-09-17T20:44:18.820Z,11.06
2022-09-17T20:46:46.923Z,10.84
2022-09-17T20:49:14.848Z,10.99
2022-09-17T20:51:45.897Z,10.94
2022-09-17T20:54:17.808Z,10.87
2022-09-17T20:56:46.482Z,10.80
2022-09-17T20:59:18.790Z,10.81
2022-09-17T21:01:49.785Z,10.84
2022-09-17T21:04:20.021Z,10.87
2022-09-17T21:06:49.342Z,10.86
2022-09-17T21:09:18.757Z,10.95
2022-09-17T21:11:47.953Z,10.93
2022-09-17T21:14:17.431Z,10.91
2022-09-17T21:16:46.467Z,10.91
2022-09-17T21:19:16.052Z,10.93
2022-09-17T21:21:47.911Z,10.95
2022-09-17T21:24:15.701Z,10.96
2022-09-17T21:26:45.851Z,10.94
2022-09-17T21:29:13.825Z,10.90
2022-09-17T21:31:41.916Z,10.92
2022-09-17T21:34:13.175Z,10.92
2022-09-17T21:36:44.848Z,10.91
2022-09-17T21:39:14.770Z,10.92
2022-09-17T21:41:44.527Z,10.90
2022-09-17T21:44:13.373Z,10.87
2022-09-17T21:46:42.889Z,10.87
2022-09-17T21:49:16.396Z,10.84
2022-09-17T21:51:44.724Z,10.81
2022-09-17T21:54:15.701Z,10.81
2022-09-17T21:56:45.889Z,10.85
2022-09-17T21:59:15.540Z,10.85
2022-09-17T22:01:46.725Z,10.84
2022-09-17T22:04:16.907Z,10.85
2022-09-17T22:06:45.873Z,10.84
2022-09-17T22:09:15.904Z,10.88
2022-09-17T22:11:45.572Z,10.92
2022-09-17T22:14:15.705Z,10.91
2022-09-17T22:16:45.844Z,10.88
2022-09-17T22:19:15.781Z,10.85
2022-09-17T22:21:46.635Z,10.83
2022-09-17T22:24:15.941Z,10.83
2022-09-17T22:26:47.706Z,10.79
2022-09-17T22:29:17.299Z,10.66
2022-09-17T22:31:45.734Z,10.62
2022-09-17T22:34:15.701Z,10.69
2022-09-17T22:36:43.557Z,10.65
2022-09-17T22:39:11.440Z,10.56
2022-09-17T22:41:45.080Z,10.67
2022-09-17T22:44:16.578Z,10.64
2022-09-17T22:46:46.633Z,10.60
2022-09-17T22:49:15.094Z,10.59
2022-09-17T22:51:43.621Z,10.55
2022-09-17T22:54:12.748Z,10.48
2022-09-17T22:56:41.253Z,10.31
2022-09-17T22:59:12.376Z,10.43
2022-09-17T23:01:42.208Z,10.39
2022-09-17T23:04:10.685Z,10.32
2022-09-17T23:06:41.938Z,10.30
2022-09-17T23:09:10.482Z,10.19
2022-09-17T23:11:40.461Z,10.09
2022-09-17T23:14:13.186Z,10.02
2022-09-17T23:16:44.541Z,9.94
2022-09-17T23:19:15.474Z,9.88
2022-09-17T23:21:43.815Z,9.80
2022-09-17T23:24:17.999Z,9.72
2022-09-17T23:26:45.898Z,9.70
2022-09-17T23:29:14.032Z,9.66
2022-09-17T23:31:43.385Z,9.64
2022-09-17T23:34:11.510Z,9.59
2022-09-17T23:36:40.608Z,9.56
2022-09-17T23:39:10.187Z,9.49
2022-09-17T23:41:40.563Z,9.52
2022-09-17T23:44:14.975Z,9.63
2022-09-17T23:46:46.786Z,9.57
2022-09-17T23:49:15.342Z,9.51
2022-09-17T23:51:43.515Z,9.48
2022-09-17T23:54:11.582Z,9.43
2022-09-17T23:56:45.208Z,9.43
2022-09-17T23:59:13.147Z,9.40
